Meteo4 di Emilio Bellavite Il primo osservatorio Meteo di Verona  
 
mercoledì 20 febbraio 2019
 
 
dati in tempo reale
Di seguito i dati in tempo reale delle stazioni on line, suddivise per regione, della rete di Meteo4. Cliccando sul link della stazione, ove presente, si accederà al sito web personale.
Stazioni online
Regione ABRUZZO
Località Giorno Ora Temp. Umid. Relat. Dew Point Press. Atm. Velocità Vento Direz. Vento Precip. Temp.
Min
Temp.
Max
Chieti (CH) 20/02/19 03.05 3.5 °C 88 % 1.7 °C 0.0 hPa 3.0 Km/h SSW 0.0 mm  3.5 °C 5.0 °C
San Salvo3 (CH) 20/02/19 03.09 5.3 °C 91 % 3.9 °C 1020.3 hPa 3.2 Km/h SSW 0.0 mm  5.2 °C 6.8 °C
Spoltore (PE) 20/02/19 00.48 6.0 °C 96 % 5.4 °C 1024.0 hPa 6.4 Km/h NW 0.0 mm  6.0 °C 6.5 °C
Vasto (CH) 19/02/19 19.59 7.8 °C 10 % -21.9 °C 1022.4 hPa 0.0 Km/h --- 0.0 mm  2.7 °C 13.3 °C
 
 
Regione BASILICATA
Località Giorno Ora Temp. Umid. Relat. Dew Point Press. Atm. Velocità Vento Direz. Vento Precip. Temp.
Min
Temp.
Max
Miglionico (MT) 20/02/19 03.00 7.2 °C 76 % 3.3 °C 1019.3 hPa 0.0 Km/h --- 0.0 mm  7.2 °C 8.4 °C
 
 
Regione CALABRIA
Località Giorno Ora Temp. Umid. Relat. Dew Point Press. Atm. Velocità Vento Direz. Vento Precip. Temp.
Min
Temp.
Max
Bisignano (CS) 20/02/19 03.03 5.5 °C 52 % -3.6 °C 1020.0 hPa 0.0 Km/h SW 0.0 mm  5.5 °C 7.1 °C
Savelli (KR) 20/02/19 03.09 5.1 °C 71 % 0.2 °C 1021.8 hPa 0.0 Km/h WSW 0.0 mm  5.1 °C 6.0 °C
 
 
Regione CAMPANIA
Località Giorno Ora Temp. Umid. Relat. Dew Point Press. Atm. Velocità Vento Direz. Vento Precip. Temp.
Min
Temp.
Max
 
 
Regione EMILIA ROMAGNA
Località Giorno Ora Temp. Umid. Relat. Dew Point Press. Atm. Velocità Vento Direz. Vento Precip. Temp.
Min
Temp.
Max
Bellaria Igea Marina (RN) 20/02/19 03.08 3.6 °C 93 % 2.6 °C 1022.9 hPa 0.0 Km/h N 0.0 mm  3.6 °C 5.5 °C
Bellaria Igea Marina2 (RN) 20/02/19 03.08 3.7 °C 96 % 3.1 °C 1022.6 hPa 0.0 Km/h ESE 0.0 mm  3.7 °C 5.6 °C
Carpi (MO) 20/02/19 03.04 4.0 °C 95 % 3.3 °C 1022.9 hPa 0.0 Km/h SSE 0.0 mm  4.0 °C 4.7 °C
Filo di Argenta (FE) 20/02/19 03.05 3.5 °C 94 % 2.6 °C 1024.0 hPa 2.6 Km/h W 0.0 mm  3.5 °C 4.0 °C
Masiera di Bagnacavallo (RA) 20/02/19 03.05 3.9 °C 94 % 3.0 °C 1022.7 hPa 5.4 Km/h NNE 0.0 mm  2.5 °C 3.9 °C
Migliarino (FE) 20/02/19 03.09 5.8 °C 99 % 5.7 °C 1023.3 hPa 0.0 Km/h NE 0.0 mm  5.5 °C 5.9 °C
Ponte San Pellegrino (MO) 20/02/19 03.06 4.6 °C 99 % 4.5 °C 1026.5 hPa 0.0 Km/h S 0.0 mm  4.5 °C 5.2 °C
Riccione (RN) 20/02/19 03.04 3.9 °C 92 % 2.7 °C 1023.2 hPa 0.0 Km/h SW 0.0 mm  3.3 °C 4.6 °C
Rimini (RN) 20/02/19 03.00 3.1 °C 88 % 1.3 °C 1023.6 hPa 0.0 Km/h SSW 0.0 mm  3.1 °C 5.1 °C
Rimini Zona Palas (RN) 20/02/19 03.04 3.9 °C 94 % 3.0 °C 1023.8 hPa 1.6 Km/h WSW 0.0 mm  3.9 °C 5.1 °C
Stiore - Monteveglio (BO) 20/02/19 03.09 0.2 °C 92 % -0.9 °C 1020.4 hPa 0.0 Km/h E 0.0 mm  -0.6 °C 4.6 °C
 
 
Regione FRIULI V.G.
Località Giorno Ora Temp. Umid. Relat. Dew Point Press. Atm. Velocità Vento Direz. Vento Precip. Temp.
Min
Temp.
Max
Budoia (PN) 20/02/19 03.01 5.6 °C 91 % 4.3 °C 1023.6 hPa 0.0 Km/h WSW 0.0 mm  5.6 °C 6.1 °C
Campoformido (UD) 20/02/19 03.07 6.1 °C 83 % 3.4 °C 1023.4 hPa 0.0 Km/h NE 0.0 mm  6.1 °C 6.2 °C
Codroipo (UD) 20/02/19 03.05 6.4 °C 85 % 4.1 °C 1021.8 hPa 0.4 Km/h NE 0.0 mm  6.4 °C 6.6 °C
Fogliano Redipuglia (GO) 20/02/19 03.05 6.6 °C 88 % 4.8 °C 1023.5 hPa 3.2 Km/h N 0.0 mm  6.6 °C 7.1 °C
Fontanafredda (PN) 20/02/19 03.08 5.5 °C 96 % 4.9 °C 1023.0 hPa 0.0 Km/h ESE 0.0 mm  5.5 °C 5.8 °C
Gorizia (GO) 20/02/19 03.06 6.5 °C 83 % 3.8 °C 1023.2 hPa 0.0 Km/h E 0.0 mm  6.1 °C 6.5 °C
Ovaro loc. Liariis (UD) 20/02/19 02.55 -0.1 °C 91 % -1.3 °C 1024.8 hPa 0.0 Km/h --- 0.0 mm  -0.2 °C 0.6 °C
Pordenone (PN) 19/02/19 19.45 8.0 °C 83 % 5.3 °C 1023.1 hPa 1.6 Km/h N 0.0 mm  -0.5 °C 8.8 °C
Sacile (PN) 20/02/19 02.55 6.3 °C 83 % 3.6 °C 1023.9 hPa 1.6 Km/h NE 0.0 mm  6.2 °C 6.6 °C
Sacile2 (PN) 20/02/19 03.05 6.4 °C 90 % 4.9 °C 1026.6 hPa 0.0 Km/h --- 0.0 mm  6.1 °C 6.4 °C
Staranzano (GO) 20/02/19 02.50 6.8 °C 86 % 4.6 °C 1023.6 hPa 0.0 Km/h E 0.0 mm  6.8 °C 7.7 °C
 
 
Regione LAZIO
Località Giorno Ora Temp. Umid. Relat. Dew Point Press. Atm. Velocità Vento Direz. Vento Precip. Temp.
Min
Temp.
Max
Acquapendente (VT) 20/02/19 03.08 1.8 °C 90 % 0.3 °C 1026.4 hPa 0.0 Km/h SW 0.0 mm  1.1 °C 2.5 °C
Capodimonte (VT) 20/02/19 03.05 4.9 °C 93 % 3.9 °C 1025.6 hPa 0.0 Km/h N 0.0 mm  4.7 °C 5.8 °C
Caprarola Centro Storico (VT) 20/02/19 03.08 5.4 °C 74 % 1.1 °C 1024.0 hPa 0.0 Km/h WSW 0.0 mm  3.9 °C 5.4 °C
Civita Castellana (VT) 20/02/19 03.08 2.2 °C 11 % -25.3 °C 1024.7 hPa 0.6 Km/h NNW 0.0 mm  1.7 °C 2.6 °C
Marta (VT) 20/02/19 03.05 4.3 °C 90 % 2.8 °C 1021.7 hPa 0.0 Km/h W 0.0 mm  3.9 °C 5.1 °C
Pomezia (RM) 20/02/19 03.08 7.7 °C 78 % 4.1 °C 1023.0 hPa 1.6 Km/h NW 0.0 mm  7.4 °C 8.3 °C
Rocca Priora (RM) 20/02/19 02.35 3.3 °C 87 % 1.4 °C 1025.8 hPa 1.6 Km/h WNW 0.0 mm  3.3 °C 3.7 °C
Ronciglione Centro (VT) 20/02/19 03.05 4.4 °C 80 % 1.2 °C 1022.0 hPa 2.2 Km/h NW 0.0 mm  3.7 °C 4.4 °C
Ronciglione - Ponte Cuzzoli (VT) 20/02/19 03.09 4.2 °C 83 % 1.6 °C 1024.1 hPa 1.6 Km/h WSW 0.0 mm  3.2 °C 4.3 °C
S. Lorenzo Nuovo (VT) 20/02/19 03.05 4.5 °C 85 % 2.2 °C 1021.3 hPa 3.2 Km/h N 0.0 mm  4.2 °C 5.0 °C
Tuscania (VT) 19/02/19 09.00 8.5 °C 75 % 4.3 °C 1025.2 hPa 0.9 Km/h NE 0.0 mm  7.2 °C 8.6 °C
Valentano (VT) 20/02/19 03.08 5.0 °C 81 % 2.2 °C 1023.0 hPa 0.0 Km/h W 0.0 mm  4.9 °C 5.5 °C
Viterbo Santa Barbara (VT) 19/02/19 22.19 3.9 °C 82 % 1.1 °C 1023.5 hPa 0.0 Km/h SW 0.0 mm  3.8 °C 11.2 °C
Viterbo Strada Bagni (VT) 20/02/19 03.04 2.0 °C 93 % 1.0 °C 1023.7 hPa 0.0 Km/h NW 0.0 mm  1.0 °C 2.0 °C
Vitorchiano Pallone (VT) 19/02/19 18.50 8.5 °C 75 % 4.3 °C 1022.0 hPa 0.0 Km/h --- 0.0 mm  6.8 °C 10.5 °C
 
 
Regione LIGURIA
Località Giorno Ora Temp. Umid. Relat. Dew Point Press. Atm. Velocità Vento Direz. Vento Precip. Temp.
Min
Temp.
Max
Arenzano (GE) 20/02/19 03.08 10.6 °C 73 % 5.9 °C 1023.6 hPa 4.8 Km/h NNE 0.0 mm  10.2 °C 10.6 °C
Cosseria Lidora (SV) 20/02/19 03.00 1.1 °C 94 % 0.3 °C 1023.4 hPa 0.0 Km/h WNW 0.0 mm  1.0 °C 3.4 °C
Genova (GE) 20/02/19 03.08 9.9 °C 67 % 4.0 °C 1026.2 hPa 8.0 Km/h NE 0.0 mm  9.9 °C 10.9 °C
Genova Erzelli (GE) 20/02/19 03.08 9.0 °C 73 % 4.4 °C 1022.4 hPa 14.5 Km/h N 0.0 mm  9.0 °C 10.9 °C
Genova Oregina (GE) 20/02/19 03.08 9.0 °C 60 % 1.7 °C 1023.2 hPa 1.6 Km/h NE 0.0 mm  8.9 °C 9.8 °C
Loano (SV) 20/02/19 03.05 9.6 °C 70 % 4.4 °C 1022.8 hPa 8.0 Km/h SW 0.0 mm  9.6 °C 11.0 °C
Moneglia loc. Casale (GE) 20/02/19 03.06 9.4 °C 67 % 3.6 °C 1024.8 hPa 0.0 Km/h NNW 0.0 mm  9.3 °C 9.5 °C
Moneglia loc. La Secca (GE) 20/02/19 03.05 9.9 °C 67 % 4.1 °C 1022.8 hPa 6.4 Km/h NE 0.0 mm  9.9 °C 10.9 °C
Ortonovo (SP) 20/02/19 03.05 9.4 °C 61 % 2.3 °C 1009.7 hPa 7.2 Km/h SW 0.0 mm  9.3 °C 9.7 °C
Varese Ligure (SP) 20/02/19 03.05 1.9 °C 89 % 0.3 °C 1017.0 hPa 1.0 Km/h N 0.0 mm  1.9 °C 4.4 °C
 
 
Regione LOMBARDIA
Località Giorno Ora Temp. Umid. Relat. Dew Point Press. Atm. Velocità Vento Direz. Vento Precip. Temp.
Min
Temp.
Max
Bernate Ticino fraz. Casate (MI) 20/02/19 03.05 0.7 °C 86 % -1.4 °C 1019.7 hPa 0.0 Km/h N 0.0 mm  0.7 °C 2.6 °C
Besozzo (VA) 20/02/19 03.04 -0.3 °C 93 % -1.3 °C 1023.3 hPa 0.0 Km/h E 0.0 mm  -0.3 °C 1.8 °C
Brebbia (VA) 20/02/19 02.30 0.7 °C 91 % -0.6 °C 1024.4 hPa 0.0 Km/h S 0.0 mm  0.4 °C 2.6 °C
Calcinato (BS) 20/02/19 03.08 1.4 °C 93 % 0.4 °C 1025.7 hPa 0.0 Km/h N 0.0 mm  1.4 °C 4.2 °C
Cassano Magnago (VA) 20/02/19 02.59 2.1 °C 91 % 0.8 °C 1022.6 hPa 0.0 Km/h SE 0.0 mm  2.1 °C 3.8 °C
Cavaria con Premezzo (VA) 19/02/19 11.28 10.3 °C 68 % 4.7 °C 1022.1 hPa 0.9 Km/h SSE 0.0 mm  0.9 °C 10.4 °C
Costa Volpino (BG) 20/02/19 03.04 3.5 °C 69 % -1.7 °C 1019.7 hPa 3.2 Km/h NW 0.0 mm  3.5 °C 4.9 °C
Dorno (PV) 20/02/19 03.09 4.6 °C 89 % 3.0 °C 1023.6 hPa 0.0 Km/h SSW 0.0 mm  4.6 °C 7.1 °C
Esine (BS) 20/02/19 03.08 2.1 °C 83 % -0.5 °C 1022.7 hPa 0.0 Km/h NE 0.0 mm  2.1 °C 5.2 °C
Gaggiano (MI) 20/02/19 03.05 5.9 °C 87 % 3.9 °C 1022.5 hPa 1.3 Km/h NNW 0.0 mm  5.2 °C 6.4 °C
Laxolo (BG) 20/02/19 03.06 2.2 °C 99 % 2.1 °C 1017.7 hPa 0.0 Km/h NE 0.0 mm  0.3 °C 10.9 °C
Lesmo (MB) 20/02/19 03.05 1.9 °C 92 % 0.8 °C 1023.4 hPa 0.0 Km/h --- 0.0 mm  1.9 °C 3.8 °C
Limbiate (MB) 20/02/19 02.55 1.5 °C 93 % 0.5 °C 1013.8 hPa 0.0 Km/h NE 0.0 mm  1.4 °C 2.4 °C
Lovere (BG) 20/02/19 02.57 4.4 °C 58 % 0.0 °C 1022.5 hPa 0.0 Km/h N 0.0 mm  4.4 °C 5.8 °C
Malnate San Salvatore (VA) 20/02/19 03.00 2.2 °C 94 % 1.4 °C 1023.9 hPa 0.0 Km/h ENE 0.0 mm  1.5 °C 2.8 °C
Mezzana Bigli (PV) 20/02/19 03.05 2.8 °C 90 % 1.3 °C 1022.0 hPa 0.0 Km/h SW 0.0 mm  2.8 °C 6.2 °C
Montagna in Valtellina (SO) 20/02/19 03.08 3.6 °C 69 % -1.6 °C 1023.7 hPa 0.0 Km/h ENE 0.0 mm  3.6 °C 4.4 °C
Rivalta sul Mincio (MN) 20/02/19 03.02 5.2 °C 95 % 4.5 °C 1024.0 hPa 2.6 Km/h S 0.0 mm  4.1 °C 5.4 °C
 
 
Regione MARCHE
Località Giorno Ora Temp. Umid. Relat. Dew Point Press. Atm. Velocità Vento Direz. Vento Precip. Temp.
Min
Temp.
Max
Ancona (AN) 20/02/19 03.00 3.6 °C 94 % 2.7 °C 1023.8 hPa 0.0 Km/h --- 0.0 mm  3.2 °C 4.2 °C
Ancona loc. Brecce Bianche (AN) 20/02/19 03.05 2.6 °C 75 % -1.4 °C 1026.0 hPa 0.0 Km/h ENE 0.0 mm  2.5 °C 3.8 °C
Barbara (AN) 20/02/19 03.08 6.5 °C 72 % 1.8 °C 1026.0 hPa 13.7 Km/h SW 0.0 mm  6.2 °C 7.1 °C
Ca' Gallo (PU) 20/02/19 02.59 3.2 °C 84 % 0.8 °C 1018.8 hPa 4.0 Km/h NW 0.0 mm  3.2 °C 4.0 °C
Marina di Montemarciano (AN) 20/02/19 03.00 3.8 °C 83 % 1.2 °C 1023.8 hPa 4.8 Km/h S 0.0 mm  3.6 °C 4.7 °C
Massignano (AP) 20/02/19 02.45 6.1 °C 90 % 4.6 °C 1023.1 hPa 0.7 Km/h N 0.0 mm  6.1 °C 7.7 °C
Montelabbate (PU) 20/02/19 02.59 3.6 °C 86 % 1.4 °C 1017.5 hPa 0.0 Km/h SSW 0.0 mm  3.3 °C 5.1 °C
San Benedetto del Tronto (AP) 19/02/19 08.30 6.7 °C 70 % 1.6 °C 1022.5 hPa 0.0 Km/h WNW 0.0 mm  4.1 °C 6.7 °C
 
 
Regione MOSELLE
Località Giorno Ora Temp. Umid. Relat. Dew Point Press. Atm. Velocità Vento Direz. Vento Precip. Temp.
Min
Temp.
Max
Seremange Erzange (Moselle) 20/02/19 03.08 -0.3 °C 96 % -0.9 °C 1024.4 hPa 0.0 Km/h WSW 0.0 mm  -0.3 °C 1.0 °C
 
 
Regione PIEMONTE
Località Giorno Ora Temp. Umid. Relat. Dew Point Press. Atm. Velocità Vento Direz. Vento Precip. Temp.
Min
Temp.
Max
Castelferro (AL) 20/02/19 03.08 5.3 °C 90 % 3.8 °C 1023.2 hPa 6.4 Km/h S 0.0 mm  5.3 °C 6.8 °C
Monasterolo Torinese (TO) 20/02/19 03.00 4.7 °C 72 % 0.1 °C 1019.8 hPa 0.0 Km/h --- 0.0 mm  4.6 °C 6.1 °C
Mongrando San Michele (BI) 20/02/19 03.00 2.8 °C 100 % 2.8 °C 1022.4 hPa 1.6 Km/h NW 0.0 mm  2.7 °C 4.0 °C
Muzzano (BI) 20/02/19 03.00 5.7 °C 70 % 0.7 °C 1021.4 hPa 1.6 Km/h WNW 0.0 mm  5.7 °C 6.2 °C
Nichelino (TO) 19/02/19 16.15 14.4 °C 48 % 3.6 °C 1022.4 hPa 1.6 Km/h SSE 0.0 mm  1.2 °C 14.8 °C
Novara (NO) 20/02/19 01.50 1.7 °C 87 % -0.3 °C 1022.3 hPa 0.0 Km/h --- 0.0 mm  1.6 °C 3.1 °C
Parella (TO) 20/02/19 02.59 5.2 °C 77 % 1.4 °C 1020.9 hPa 0.0 Km/h NW 0.0 mm  5.1 °C 6.4 °C
Pecetto Torinese (TO) 20/02/19 02.59 4.9 °C 84 % 2.5 °C 1022.6 hPa 1.6 Km/h WNW 0.0 mm  4.9 °C 5.9 °C
Pila Valsesia (VC) 20/02/19 03.05 1.1 °C 79 % -2.1 °C 1021.0 hPa 1.6 Km/h WNW 0.0 mm  0.8 °C 2.0 °C
Piovà Massaia (AT) 20/02/19 03.08 5.2 °C 87 % 3.2 °C 1021.6 hPa 0.0 Km/h NE 0.0 mm  5.1 °C 6.3 °C
Pozzolo Formigaro (AL) 20/02/19 03.04 5.8 °C 83 % 3.1 °C 1023.3 hPa 0.0 Km/h SSE 0.0 mm  5.3 °C 6.1 °C
Pray (BI) 20/02/19 03.06 -0.1 °C 91 % -1.4 °C 1023.1 hPa 0.0 Km/h --- 0.0 mm  -0.1 °C 1.3 °C
Soriso (NO) 20/02/19 03.00 5.3 °C 81 % 2.3 °C 1023.0 hPa 0.0 Km/h WNW 0.0 mm  5.2 °C 6.6 °C
Torino Regio Parco (TO) 20/02/19 03.09 5.3 °C 82 % 2.5 °C 1023.4 hPa 0.0 Km/h S 0.0 mm  5.3 °C 7.2 °C
Valenza (AL) 20/02/19 03.09 5.8 °C 89 % 4.1 °C 1022.3 hPa 3.2 Km/h WSW 0.0 mm  5.8 °C 8.7 °C
Viozene Toria (CN) 20/02/19 03.06 -1.1 °C 41 % -12.7 °C 1015.7 hPa 1.0 Km/h NW 0.0 mm  -2.6 °C 0.0 °C
 
 
Regione PUGLIA
Località Giorno Ora Temp. Umid. Relat. Dew Point Press. Atm. Velocità Vento Direz. Vento Precip. Temp.
Min
Temp.
Max
Acquaviva delle Fonti (BA) 20/02/19 03.08 6.1 °C 84 % 3.6 °C 1021.0 hPa 0.0 Km/h SW 0.0 mm  5.6 °C 6.8 °C
S. Giovanni Rotondo (FG) 20/02/19 03.08 5.5 °C 72 % 0.9 °C 1022.0 hPa 0.0 Km/h NE 0.0 mm  5.4 °C 6.9 °C
Taranto (TA) 20/02/19 03.08 8.5 °C 87 % 6.5 °C 1018.1 hPa 0.0 Km/h ENE 0.0 mm  8.5 °C 9.4 °C
Vieste (FG) 20/02/19 03.00 6.4 °C 75 % 2.3 °C 1022.0 hPa 4.8 Km/h SW 0.0 mm  6.4 °C 8.5 °C
 
 
Regione SARDEGNA
Località Giorno Ora Temp. Umid. Relat. Dew Point Press. Atm. Velocità Vento Direz. Vento Precip. Temp.
Min
Temp.
Max
Bonorva (SS) 20/02/19 03.05 5.7 °C 84 % 3.2 °C 1022.4 hPa 0.0 Km/h --- 0.0 mm  5.7 °C 7.4 °C
Iglesias (CI) 20/02/19 03.06 6.9 °C 91 % 5.5 °C 1026.6 hPa 3.2 Km/h NE 0.0 mm  6.9 °C 9.1 °C
Oristano (OR) 20/02/19 03.09 6.8 °C 83 % 4.1 °C 1021.4 hPa 4.8 Km/h ESE 0.0 mm  6.3 °C 8.6 °C
Sinnai (CA) 19/02/19 23.45 8.7 °C 83 % 5.9 °C 1022.9 hPa 0.0 Km/h ENE 0.0 mm  8.7 °C 17.2 °C
 
 
Regione SICILIA
Località Giorno Ora Temp. Umid. Relat. Dew Point Press. Atm. Velocità Vento Direz. Vento Precip. Temp.
Min
Temp.
Max
Barcellona P.G. Centro (ME) 20/02/19 03.08 7.8 °C 82 % 5.0 °C 1023.9 hPa 8.0 Km/h ESE 0.0 mm  7.8 °C 8.3 °C
Barcellona Pozzo di Gotto (ME) 20/02/19 03.08 8.1 °C 86 % 5.9 °C 1023.6 hPa 6.5 Km/h SW 0.0 mm  7.8 °C 9.1 °C
Brolo c/da Parrazzà (ME) 20/02/19 03.05 8.1 °C 76 % 4.1 °C 1023.9 hPa 6.0 Km/h ESE 0.0 mm  8.1 °C 8.7 °C
Buccheri (SR) 19/02/19 23.54 4.5 °C 82 % 1.7 °C 1021.6 hPa 8.7 Km/h WSW 0.0 mm  2.9 °C 9.9 °C
Caltabellotta (AG) 20/02/19 02.55 5.7 °C 94 % 4.8 °C 1022.9 hPa 0.0 Km/h SSW 0.0 mm  5.7 °C 5.9 °C
Cammarata (AG) 20/02/19 03.05 3.8 °C 95 % 3.1 °C 1022.0 hPa 3.6 Km/h N 0.0 mm  3.6 °C 4.3 °C
Cefalù (PA) 20/02/19 03.08 9.9 °C 71 % 4.9 °C 1020.0 hPa 0.2 Km/h SSE 0.0 mm  8.6 °C 9.9 °C
Marineo (PA) 20/02/19 03.09 6.9 °C 86 % 4.8 °C 1023.3 hPa 0.0 Km/h NNE 0.0 mm  6.0 °C 6.9 °C
Mirabella Imbaccari (CT) 20/02/19 03.06 6.2 °C 91 % 4.9 °C 1025.8 hPa 5.6 Km/h W 0.0 mm  6.2 °C 6.8 °C
Pace del Mela (ME) 20/02/19 03.05 6.2 °C 83 % 3.5 °C 1018.5 hPa 0.0 Km/h SE 0.0 mm  6.2 °C 7.3 °C
Piraino contr. Fiumara (ME) 20/02/19 03.05 5.8 °C 90 % 4.3 °C 1024.6 hPa 0.0 Km/h NE 0.0 mm  5.8 °C 6.3 °C
Randazzo (CT) 18/02/19 15.18 12.5 °C 56 % 3.9 °C 1023.7 hPa 13.4 Km/h NE 0.0 mm  1.4 °C 12.5 °C
San Giovanni la Punta Trappeto (CT) 20/02/19 02.55 7.1 °C 87 % 5.0 °C 1023.3 hPa 3.2 Km/h NNW 0.0 mm  7.1 °C 7.7 °C
 
 
Regione TOSCANA
Località Giorno Ora Temp. Umid. Relat. Dew Point Press. Atm. Velocità Vento Direz. Vento Precip. Temp.
Min
Temp.
Max
Bientina (PI) 20/02/19 03.05 7.3 °C 81 % 4.3 °C 1022.0 hPa 1.1 Km/h E 0.0 mm  7.3 °C 7.9 °C
Carmignano loc. Seano (PO) 20/02/19 03.09 4.6 °C 86 % 2.5 °C 1024.2 hPa 1.1 Km/h W 0.0 mm  4.6 °C 7.4 °C
Castelnuovo V.C. (PI) 20/02/19 03.02 5.1 °C 83 % 2.4 °C 1023.7 hPa 0.0 Km/h ENE 0.0 mm  4.7 °C 5.3 °C
Castiglione della Pescaia (GR) 20/02/19 03.08 5.9 °C 69 % 0.7 °C 1027.5 hPa 1.4 Km/h SE 0.0 mm  4.5 °C 6.1 °C
Castiglione della Pescaia Vaticino (GR) 20/02/19 03.06 7.1 °C 82 % 4.2 °C 1014.1 hPa 0.4 Km/h WSW 0.0 mm  5.5 °C 7.4 °C
Chiusi (SI) 20/02/19 02.55 5.4 °C 87 % 3.4 °C 1022.9 hPa 0.0 Km/h S 0.0 mm  4.2 °C 5.4 °C
Isola d'Elba Marina di Campo (LI) 19/02/19 14.45 12.9 °C 70 % 7.6 °C 593.7 hPa 3.2 Km/h SSW 0.0 mm  8.4 °C 13.2 °C
Montespertoli (FI) 20/02/19 03.08 8.5 °C 60 % 1.2 °C 1025.0 hPa 1.0 Km/h N 0.0 mm  8.2 °C 9.0 °C
Montopoli in val d'Arno Loc. Capanne (PI) 20/02/19 03.00 6.6 °C 85 % 4.2 °C 1024.0 hPa 0.7 Km/h S 0.0 mm  6.2 °C 6.8 °C
Musigliano (PI) 20/02/19 03.06 8.5 °C 74 % 4.1 °C 1023.1 hPa 2.0 Km/h SE 0.0 mm  7.7 °C 8.6 °C
Pisa zona I Passi (PI) 20/02/19 03.08 7.8 °C 71 % 2.9 °C 1024.3 hPa 0.0 Km/h NE 0.0 mm  7.1 °C 7.8 °C
Reggello (FI) 20/02/19 03.05 6.8 °C 71 % 1.9 °C 1027.0 hPa 0.0 Km/h SSE 0.0 mm  6.4 °C 7.2 °C
Torri (FI) 20/02/19 03.00 3.6 °C 86 % 1.5 °C 1023.7 hPa 3.2 Km/h SSE 0.0 mm  3.6 °C 5.7 °C
Torrita di Siena (SI) 20/02/19 03.05 2.0 °C 95 % 1.3 °C 1025.7 hPa 0.0 Km/h --- 0.0 mm  0.6 °C 2.1 °C
 
 
Regione TRENTINO A. A.
Località Giorno Ora Temp. Umid. Relat. Dew Point Press. Atm. Velocità Vento Direz. Vento Precip. Temp.
Min
Temp.
Max
Ala (TN) 20/02/19 03.08 3.2 °C 84 % 0.8 °C 1022.9 hPa 0.0 Km/h ENE 0.0 mm  3.3 °C 4.9 °C
Avio (TN) 20/02/19 03.08 4.1 °C 82 % 1.3 °C 1022.4 hPa 0.0 Km/h NE 0.0 mm  4.1 °C 5.3 °C
Balbido (TN) 20/02/19 03.05 1.8 °C 89 % 0.2 °C 1021.2 hPa 2.1 Km/h NW 0.0 mm  1.8 °C 3.1 °C
Besenello (TN) 20/02/19 03.04 1.1 °C 88 % -0.7 °C 1023.8 hPa 0.0 Km/h ENE 0.0 mm  1.1 °C 2.6 °C
Bolognano di Arco (TN) 19/02/19 16.49 11.8 °C 61 % 4.5 °C 1020.6 hPa 8.0 Km/h N 0.0 mm  1.6 °C 13.3 °C
Borgo Valsugana (TN) 20/02/19 02.49 0.4 °C 84 % -2.0 °C 1021.9 hPa 1.4 Km/h WSW 0.0 mm  0.4 °C 1.2 °C
Calliano (TN) 20/02/19 03.08 0.5 °C 89 % -1.1 °C 1023.2 hPa 3.2 Km/h ESE 0.0 mm  0.4 °C 2.8 °C
Carezza (BZ) 20/02/19 02.49 -4.8 °C 80 % -7.7 °C 1016.5 hPa 0.3 Km/h SW 0.0 mm  -5.9 °C -4.4 °C
Fiavè loc. Ballino (TN) 20/02/19 03.05 1.1 °C 88 % -0.7 °C 1022.7 hPa 0.0 Km/h N 0.0 mm  1.1 °C 1.5 °C
Gardolo (TN) 20/02/19 03.04 0.3 °C 87 % -1.6 °C 1024.1 hPa 0.0 Km/h NNE 0.0 mm  0.0 °C 2.2 °C
Isera loc. Reviano (TN) 20/02/19 03.09 2.3 °C 83 % -0.3 °C 1021.0 hPa 3.9 Km/h SW 0.0 mm  2.3 °C 3.8 °C
Lavis (TN) 20/02/19 01.55 1.8 °C 79 % -1.7 °C 1024.0 hPa 3.2 Km/h N 0.0 mm  1.8 °C 2.8 °C
Margone (TN) 20/02/19 03.00 1.3 °C 86 % -0.8 °C 1024.4 hPa 1.5 Km/h NNW 0.0 mm  0.9 °C 1.9 °C
Martignano (TN) 20/02/19 03.04 3.3 °C 80 % 0.2 °C 1022.0 hPa 0.0 Km/h E 0.0 mm  3.2 °C 5.1 °C
Massone di Arco (TN) 20/02/19 03.05 3.3 °C 88 % 1.5 °C 1021.7 hPa 0.0 Km/h N 0.0 mm  3.2 °C 4.4 °C
Miola di Piné (TN) 20/02/19 03.05 -0.1 °C 85 % -2.3 °C 1023.5 hPa 4.8 Km/h ENE 0.0 mm  -0.6 °C 0.7 °C
Padergnone (TN) 20/02/19 03.00 0.7 °C 91 % -0.6 °C 1024.2 hPa 0.0 Km/h S 0.0 mm  0.6 °C 1.3 °C
Taio Mollaro (TN) 20/02/19 03.08 -1.1 °C 88 % -2.8 °C 1023.8 hPa 0.0 Km/h NNE 0.0 mm  -1.1 °C 0.0 °C
Trambileno (TN) 20/02/19 03.04 0.0 °C 92 % -1.1 °C 1021.6 hPa 0.0 Km/h SE 0.0 mm  0.0 °C 1.0 °C
Trento (TN) 20/02/19 03.04 3.8 °C 77 % 0.1 °C 1022.7 hPa 6.4 Km/h SE 0.0 mm  3.2 °C 5.4 °C
Vattaro fraz. Pian dei Pradi (TN) 20/02/19 03.09 0.6 °C 90 % -0.8 °C 1023.8 hPa 0.0 Km/h NW 0.0 mm  0.6 °C 2.0 °C
 
 
Regione UMBRIA
Località Giorno Ora Temp. Umid. Relat. Dew Point Press. Atm. Velocità Vento Direz. Vento Precip. Temp.
Min
Temp.
Max
Castiglione del Lago (PG) 20/02/19 03.00 2.2 °C 92 % 1.1 °C 1027.0 hPa 0.0 Km/h --- 0.0 mm  0.5 °C 2.3 °C
Foligno (PG) 20/02/19 03.00 1.8 °C 86 % -0.3 °C 1024.7 hPa 3.2 Km/h E 0.0 mm  1.7 °C 3.5 °C
Orvieto (TR) 19/02/19 23.15 3.9 °C 82 % 1.1 °C 1021.3 hPa 0.0 Km/h SE 0.0 mm  3.9 °C 11.9 °C
Perugia San Mariano (PG) 20/02/19 03.04 2.6 °C 82 % -0.2 °C 1026.0 hPa 0.0 Km/h --- 0.0 mm  1.9 °C 3.4 °C
Todi (PG) 20/02/19 03.05 3.4 °C 82 % 0.7 °C 1023.6 hPa 0.0 Km/h N 0.0 mm  3.4 °C 6.1 °C
 
 
Regione VALLE DAOSTA
Località Giorno Ora Temp. Umid. Relat. Dew Point Press. Atm. Velocità Vento Direz. Vento Precip. Temp.
Min
Temp.
Max
Colle del Piccolo San Bernardo La Thuile (AO) 20/02/19 03.04 -2.4 °C 38 % -14.8 °C 1024.1 hPa 5.2 Km/h SSE 0.0 mm  -3.8 °C -2.1 °C
 
 
Regione VENETO
Località Giorno Ora Temp. Umid. Relat. Dew Point Press. Atm. Velocità Vento Direz. Vento Precip. Temp.
Min
Temp.
Max
Abano (PD) 20/02/19 03.00 5.3 °C 94 % 4.4 °C 1023.7 hPa 0.0 Km/h N 0.0 mm  5.3 °C 6.7 °C
Alleghe (BL) 20/02/19 03.08 0.5 °C 63 % -5.7 °C 1006.0 hPa 0.0 Km/h E 0.0 mm  0.4 °C 2.1 °C
Alleghe Lago (BL) 20/02/19 03.08 -0.7 °C 76 % -4.4 °C 1020.2 hPa 10.8 Km/h E 0.0 mm  -1.1 °C -0.1 °C
Arquà Polesine (RO) 20/02/19 03.05 5.3 °C 93 % 4.3 °C 1024.5 hPa 0.0 Km/h WNW 0.0 mm  5.3 °C 6.1 °C
Arzignano loc. Castello (VI) 19/02/19 23.00 5.1 °C 92 % 3.9 °C 1021.9 hPa 0.0 Km/h --- 0.0 mm  4.3 °C 13.0 °C
Arzignano Pugnello (VI) 20/02/19 03.04 3.1 °C 92 % 1.9 °C 1021.4 hPa 3.2 Km/h W 0.0 mm  2.9 °C 3.6 °C
Arzignano Tezze (VI) 20/02/19 02.59 4.9 °C 94 % 4.1 °C 1023.1 hPa 0.0 Km/h NNW 0.0 mm  4.9 °C 5.4 °C
Asiago Rifugio Val Formica (VI) 18/02/19 11.30 6.5 °C 44 % -4.9 °C 1025.2 hPa 0.0 Km/h NW 0.0 mm  -4.0 °C 7.0 °C
Badia Calavena loc. San Valentino (VR) 20/02/19 03.08 2.3 °C 91 % 1.0 °C 1019.8 hPa 3.2 Km/h NW 0.0 mm  2.2 °C 3.5 °C
Bardolino (VR) 20/02/19 03.04 5.0 °C 95 % 4.3 °C 1015.9 hPa 0.0 Km/h E 0.0 mm  4.4 °C 6.1 °C
Beccacivetta (VR) 20/02/19 02.59 0.8 °C 96 % 0.2 °C 1023.6 hPa 0.0 Km/h WNW 0.0 mm  0.2 °C 2.8 °C
Belluno Castion (BL) 20/02/19 03.00 -1.7 °C 94 % -2.5 °C 1023.0 hPa 0.0 Km/h --- 0.0 mm  -1.8 °C 1.3 °C
Bosco Chiesanuova ARPAV (VR) 20/02/19 03.00 2.5 °C 99 % 2.4 °C  hPa 4.0 Km/h N 0.0 mm  1.6 °C 2.5 °C
Brendola (VI) 20/02/19 03.04 4.9 °C 99 % 4.8 °C 1008.9 hPa 0.0 Km/h SE 0.0 mm  4.9 °C 6.3 °C
Bresega (PD) 20/02/19 03.05 -0.2 °C 95 % -0.6 °C 1023.0 hPa 0.0 Km/h E 0.0 mm  -0.2 °C 1.6 °C
Brognoligo (VR) 20/02/19 02.59 1.8 °C 95 % 1.1 °C 1020.2 hPa 2.9 Km/h W 0.0 mm  1.4 °C 2.4 °C
Brugine2 (PD) 20/02/19 03.04 4.5 °C 95 % 3.8 °C 1023.7 hPa 0.0 Km/h N 0.0 mm  4.4 °C 5.8 °C
Calmasino ARPAV (VR) 20/02/19 03.00 2.4 °C 99 % 2.3 °C 1024.0 hPa 0.4 Km/h NW 0.0 mm  0.6 °C 2.4 °C
Carceri (PD) 20/02/19 02.45 0.1 °C 90 % -1.1 °C 1022.6 hPa 0.0 Km/h WNW 0.0 mm  0.1 °C 1.8 °C
Cartigliano (VI) 20/02/19 03.08 6.3 °C 74 % 2.0 °C 1022.5 hPa 0.0 Km/h NE 0.0 mm  6.2 °C 6.7 °C
Casotto (VI) 20/02/19 03.04 1.6 °C 91 % 0.3 °C 1021.5 hPa 0.0 Km/h WNW 0.0 mm  1.6 °C 2.2 °C
Castel d'Azzano (VR) 19/02/19 22.45 4.3 °C 84 % 1.9 °C 827.0 hPa 0.0 Km/h --- 0.0 mm  1.1 °C 14.9 °C
Castelfranco Veneto (TV) 20/02/19 03.00 6.6 °C 92 % 5.3 °C 1025.1 hPa 0.0 Km/h NE 0.0 mm  6.4 °C 6.7 °C
Castelgomberto (VI) 19/02/19 05.19 3.5 °C 82 % 0.7 °C 1020.5 hPa 0.0 Km/h NNW 0.0 mm  3.3 °C 5.6 °C
Cavazzale (VI) 15/02/19 12.35 14.1 °C 47 % 3.0 °C 1031.0 hPa 3.2 Km/h ENE 0.0 mm  0.4 °C 14.1 °C
Cerea (VR) 20/02/19 00.30 3.6 °C 93 % 2.5 °C 1023.4 hPa 0.0 Km/h --- 0.0 mm  3.5 °C 4.4 °C
Cerea2 (VR) 20/02/19 03.00 2.9 °C 91 % 1.6 °C 1024.5 hPa 2.0 Km/h ESE 0.0 mm  2.1 °C 4.2 °C
Cima Grappa (TV) 20/02/19 03.08 1.9 °C 54 % -6.4 °C 1022.9 hPa 6.5 Km/h N 0.0 mm  1.6 °C 2.8 °C
Cismon del Grappa loc. Corlo (VI) 20/02/19 03.09 0.8 °C 96 % 0.2 °C 1023.4 hPa 4.6 Km/h NNE 0.0 mm  0.8 °C 2.6 °C
Cogollo del Cengio (VI) 20/02/19 03.04 1.4 °C 99 % 1.3 °C 1021.1 hPa 1.6 Km/h N 0.0 mm  0.5 °C 1.8 °C
Cologna Veneta Sant'Andrea (VR) 20/02/19 03.00 0.2 °C 50 % -9.0 °C 1023.3 hPa 0.0 Km/h --- 0.0 mm  0.2 °C 2.7 °C
Colognola ai Colli (VR) 20/02/19 03.00 0.3 °C 94 % -0.6 °C 1023.4 hPa 1.6 Km/h N 0.0 mm  0.3 °C 1.7 °C
Cornedo Vicentino loc. Muzzolon (VI) 20/02/19 02.59 1.6 °C 95 % 0.9 °C 1020.9 hPa 0.0 Km/h NW 0.0 mm  1.6 °C 2.2 °C
Corrubio di S. Anna d'Alfaedo (VR) 20/02/19 03.05 1.8 °C 95 % 1.1 °C 1023.8 hPa 0.0 Km/h SSE 0.0 mm  1.8 °C 3.6 °C
Costa di Vittorio Veneto (TV) 20/02/19 02.59 4.6 °C 87 % 2.6 °C 1022.2 hPa 1.4 Km/h WSW 0.0 mm  4.6 °C 6.4 °C
Dossobuono (VR) 20/02/19 03.08 1.9 °C 96 % 1.4 °C 1024.7 hPa 0.0 Km/h NW 0.0 mm  1.7 °C 2.8 °C
Erbezzo Passo Fittanze (VR) 20/02/19 02.59 0.7 °C 84 % -1.7 °C 1024.6 hPa 8.7 Km/h WNW 0.0 mm  -0.8 °C 1.4 °C
Falzè di Piave (TV) 19/02/19 20.11 6.5 °C 88 % 4.7 °C 1024.2 hPa 0.0 Km/h --- 0.0 mm  -1.8 °C 8.2 °C
Farra di Soligo (TV) 20/02/19 03.06 4.9 °C 77 % 1.2 °C 1017.4 hPa 0.0 Km/h NNW 0.0 mm  4.9 °C 5.0 °C
Feltre Celarda (BL) 20/02/19 03.09 -0.3 °C 93 % -1.3 °C 1022.3 hPa 0.0 Km/h E 0.0 mm  -1.7 °C -0.3 °C
Ferrara di M.B. (VR) 20/02/19 02.55 -0.5 °C 85 % -2.7 °C 1018.7 hPa 3.2 Km/h N 0.0 mm  -0.6 °C 0.7 °C
Forchiade S. Tomaso Ag. (BL) 20/02/19 02.59 -0.8 °C 74 % -4.9 °C 1021.2 hPa 0.0 Km/h NE 0.0 mm  -0.8 °C -0.1 °C
Fumane Contrada La Ca (VR) 20/02/19 02.59 2.9 °C 84 % 0.5 °C 1022.9 hPa 1.6 Km/h W 0.0 mm  2.9 °C 4.4 °C
Gallio (VI) 20/02/19 02.55 -0.3 °C 74 % -4.3 °C 1023.0 hPa 0.0 Km/h N 0.0 mm  -0.8 °C 0.1 °C
Grancare di Villabalzana (VI) 20/02/19 02.59 3.7 °C 95 % 3.0 °C 1006.3 hPa 0.0 Km/h NNE 0.0 mm  3.5 °C 4.1 °C
Illasi ARPAV (VR) 20/02/19 03.00 1.8 °C 100 % 1.8 °C  hPa 2.5 Km/h N 0.0 mm  1.8 °C 3.1 °C
Legnago (VR) 20/02/19 03.05 1.8 °C 97 % 1.4 °C 1023.4 hPa 0.0 Km/h --- 0.0 mm  1.7 °C 5.0 °C
Lendinara2 (RO) 20/02/19 02.59 1.7 °C 93 % 0.7 °C 1023.6 hPa 0.0 Km/h N 0.0 mm  1.7 °C 3.9 °C
Lugagnano (VR) 19/02/19 17.54 11.6 °C 65 % 5.0 °C 1020.0 hPa 0.0 Km/h WSW 0.0 mm  1.5 °C 14.6 °C
Lugo di Vicenza (VI) 19/02/19 23.28 4.9 °C 86 % 2.8 °C 1021.6 hPa 0.0 Km/h NE 0.0 mm  3.3 °C 11.6 °C
Lusiana Sciessere (VI) 20/02/19 03.08 2.2 °C 94 % 1.3 °C 1021.2 hPa 0.0 Km/h NNE 0.0 mm  2.2 °C 2.7 °C
Malga Malera (VR) 20/02/19 03.02 -11.3 °C  %  °C  hPa 0.0 Km/h 0.0 mm   °C  °C
Marano di Valpolicella ARPAV (VR) 20/02/19 03.00 3.0 °C 98 % 2.7 °C  hPa 1.1 Km/h NE 0.0 mm  3.0 °C 4.2 °C
Marano Vicentino2 (VI) 20/02/19 03.05 4.4 °C 90 % 2.9 °C 1022.0 hPa 0.0 Km/h NNE 0.0 mm  4.7 °C 4.9 °C
Marostica Valle San Floriano (VI) 20/02/19 03.04 5.2 °C 92 % 4.0 °C 1024.5 hPa 0.0 Km/h WSW 0.0 mm  4.9 °C 5.6 °C
Merlara (PD) 20/02/19 03.00 0.2 °C 70 % -4.6 °C 1022.9 hPa 3.2 Km/h NNE 0.0 mm  0.2 °C 3.2 °C
Mizzole (VR) 20/02/19 03.06 1.2 °C 91 % -0.1 °C 1023.6 hPa 0.0 Km/h NNW 0.0 mm  0.9 °C 3.1 °C
Monselice (PD) 20/02/19 03.06 6.3 °C 85 % 3.9 °C 1016.9 hPa 9.7 Km/h SSW 0.0 mm  6.3 °C 7.1 °C
Monte Baldo Nord ARPAV (VR) 20/02/19 02.00 1.7 °C 48 % -8.1 °C 1021.2 hPa 13.7 Km/h NNE 0.0 mm  1.7 °C 2.1 °C
Monte Tomba ARPAV (VR) 20/02/19 02.00 2.3 °C 47 % -7.8 °C  hPa 26.3 Km/h N 0.0 mm  1.2 °C 2.3 °C
Montebello Vicentino loc. Selva (VI) 20/02/19 03.09 4.1 °C 91 % 2.8 °C 1024.0 hPa 8.2 Km/h NNE 0.0 mm  3.8 °C 4.3 °C
Montecchio Maggiore Sant'Urbano (VI) 20/02/19 02.57 3.6 °C 83 % 0.9 °C 1030.7 hPa 6.4 Km/h W 0.0 mm  3.6 °C 4.4 °C
Monteforte d'Alpone2 (VR) 20/02/19 03.05 3.7 °C 92 % 2.5 °C 1021.9 hPa 0.0 Km/h NNW 0.0 mm  3.1 °C 4.8 °C
Montorio (VR) 20/02/19 02.59 1.8 °C 92 % 0.6 °C 1025.6 hPa 1.8 Km/h NW 0.0 mm  1.7 °C 2.9 °C
Montorso Vicentino (VI) 20/02/19 03.09 3.6 °C 93 % 2.5 °C 1023.1 hPa 0.0 Km/h WNW 0.0 mm  3.3 °C 3.7 °C
Onara extraurbana (PD) 20/02/19 03.04 6.3 °C 89 % 4.6 °C 1017.3 hPa 0.0 Km/h WNW 0.0 mm  6.3 °C 6.8 °C
Pastrengo (VR) 20/02/19 02.59 2.9 °C 87 % 0.9 °C 1025.0 hPa 0.0 Km/h E 0.0 mm  2.7 °C 3.8 °C
Pastrengo Corné (VR) 20/02/19 03.09 2.9 °C 97 % 2.5 °C 1022.5 hPa 0.0 Km/h WNW 0.0 mm  2.4 °C 4.8 °C
Pedemonte (VR) 20/02/19 03.00 1.7 °C 89 % 0.1 °C 1023.1 hPa 0.0 Km/h N 0.0 mm  1.7 °C 2.9 °C
Perarolo di Arcugnano (VI) 20/02/19 03.06 5.2 °C 80 % 2.0 °C 992.5 hPa 0.0 Km/h NNW 0.0 mm  5.0 °C 5.9 °C
Pescantina Are (VR) 20/02/19 02.57 1.6 °C 98 % 1.3 °C 1023.5 hPa 0.0 Km/h E 0.0 mm  1.6 °C 1.7 °C
Peschiera del Garda (VR) 20/02/19 03.05 2.3 °C 96 % 1.8 °C 1023.8 hPa 1.6 Km/h SE 0.0 mm  2.3 °C 3.8 °C
Pian di Castagné (VR) 20/02/19 02.55 4.4 °C 87 % 2.4 °C 1022.9 hPa 0.0 Km/h WSW 0.0 mm  4.4 °C 5.0 °C
Pian di Castagné2 (VR) 20/02/19 02.59 3.4 °C 97 % 3.0 °C 1021.6 hPa 0.0 Km/h WSW 0.0 mm  3.4 °C 4.9 °C
Pojana Maggiore Cagnano (VI) 20/02/19 02.59 1.5 °C 86 % -0.6 °C 1021.0 hPa 0.0 Km/h 0.0 mm  1.0 °C 3.0 °C
Ponte San Nicolò (PD) 20/02/19 02.59 5.9 °C 90 % 4.4 °C 1023.1 hPa 0.0 Km/h NE 0.0 mm  5.9 °C 7.2 °C
Posina loc. Contrà Boni (VI) 20/02/19 03.04 1.3 °C 89 % -0.3 °C 1025.3 hPa 0.0 Km/h E 0.0 mm  1.2 °C 1.7 °C
Rifugio Bocca di Selva (VR) 20/02/19 03.09 1.4 °C 72 % -3.1 °C 1021.5 hPa 3.2 Km/h N 0.0 mm  1.3 °C 3.5 °C
Rifugio Castelberto (VR) 14/02/19 12.02 5.6 °C 28 % -11.5 °C 1035.8 hPa 9.7 Km/h NNW 0.0 mm  0.0 °C 6.3 °C
Rifugio Fiori del Baldo (VR) 20/02/19 02.55 2.4 °C 33 % -11.2 °C 1022.2 hPa 12.1 Km/h NE 0.0 mm  2.2 °C 2.8 °C
Rifugio Primaneve (VR) 20/02/19 03.03 3.0 °C 41 % -9.0 °C 1022.0 hPa 12.8 Km/h NNE 0.0 mm  0.1 °C 3.0 °C
Romano d'Ezzelino Fellette (VI) 20/02/19 03.08 4.2 °C 27 % -13.1 °C 1026.1 hPa 3.0 Km/h W 0.0 mm  4.2 °C 5.8 °C
Rosolina (RO) 20/02/19 02.55 5.0 °C 100 % 5.0 °C 1024.1 hPa 1.6 Km/h SSW 0.0 mm  5.0 °C 5.7 °C
Rossano Veneto (VI) 14/02/19 03.32 1.3 °C 83 % -1.3 °C 1035.5 hPa 0.0 Km/h NW 0.0 mm  1.3 °C 3.5 °C
Roverchiara ARPAV (VR) 20/02/19 03.00 1.8 °C 100 % 1.8 °C  hPa 0.0 Km/h WNW 0.0 mm  1.8 °C 3.8 °C
S. Donà di Piave (VE) 20/02/19 02.35 6.5 °C 90 % 5.0 °C 1022.4 hPa 0.0 Km/h NNE 0.0 mm  6.5 °C 6.8 °C
S. Giovanni Ilarione2 (VR) 20/02/19 03.00 2.1 °C 93 % 1.0 °C 1023.1 hPa 1.6 Km/h WNW 0.0 mm  1.9 °C 2.8 °C
S. Giovanni Lupatoto (VR) 20/02/19 02.55 3.2 °C 94 % 2.3 °C 1024.8 hPa 0.0 Km/h --- 0.0 mm  3.0 °C 4.2 °C
S. Lorenzo di Vittorio Veneto (TV) 20/02/19 03.05 4.4 °C 90 % 2.9 °C 1023.9 hPa 0.0 Km/h N 0.0 mm  4.4 °C 5.6 °C
S. Maria di Zevio Loc. 3 Ponti (VR) 20/02/19 03.05 2.8 °C 96 % 2.2 °C 1025.4 hPa 1.6 Km/h ENE 0.0 mm  1.1 °C 3.9 °C
S. Maria Maddalena (RO) 20/02/19 03.05 6.3 °C 96 % 5.6 °C 1022.5 hPa 0.0 Km/h ESE 0.0 mm  6.2 °C 6.4 °C
S. Martino Lupari (PD) 20/02/19 03.00 6.4 °C 91 % 5.0 °C 822.0 hPa 0.0 Km/h --- 0.0 mm  6.3 °C 6.6 °C
S. Rocco di Villabalzana (VI) 20/02/19 03.07 4.9 °C 92 % 3.9 °C 1023.0 hPa 3.2 Km/h WSW 0.0 mm  4.8 °C 5.3 °C
S. Zeno di Mont. Prada (VR) 20/02/19 02.55 0.0 °C 70 % -4.8 °C 1022.7 hPa 0.0 Km/h --- 0.0 mm  -0.1 °C 1.6 °C
Salcedo (VI) 19/02/19 19.02 4.0 °C 89 % 2.4 °C 1020.1 hPa 0.7 Km/h WSW 0.0 mm  3.8 °C 9.4 °C
San Bortolo ARPAV (VR) 20/02/19 03.00 3.2 °C  %  °C  hPa 0.7 Km/h SE 0.0 mm  1.8 °C 3.2 °C
San Nazario (VI) 20/02/19 03.08 3.1 °C 92 % 1.9 °C 1022.9 hPa 0.0 Km/h N 0.0 mm  3.1 °C 5.2 °C
San Pietro di Rosà (VI) 20/02/19 03.08 5.9 °C 87 % 3.9 °C 1026.4 hPa 4.6 Km/h N 0.0 mm  5.9 °C 6.7 °C
San Pietro in Cariano (VR) 20/02/19 03.00 2.6 °C 96 % 2.1 °C 1022.2 hPa 6.1 Km/h N 0.0 mm  1.8 °C 3.2 °C
San Vito di Negrar (VR) 20/02/19 03.00 2.7 °C 91 % 1.4 °C 1023.8 hPa 1.6 Km/h N 0.0 mm  1.1 °C 2.8 °C
San Zeno di Mont. Loc. Castello (VR) 20/02/19 03.05 2.6 °C 84 % 0.0 °C 1022.0 hPa 0.0 Km/h W 0.0 mm  2.5 °C 3.3 °C
Santa Maria di Negrar (VR) 20/02/19 02.59 1.8 °C 89 % 0.1 °C 1023.9 hPa 0.0 Km/h NW 0.0 mm  1.2 °C 2.1 °C
Sarcedo (VI) 20/02/19 03.06 5.1 °C 90 % 3.6 °C 1022.1 hPa 2.5 Km/h W 0.0 mm  4.7 °C 5.5 °C
Schio (VI) 20/02/19 02.45 4.1 °C 90 % 2.6 °C 1025.0 hPa 0.0 Km/h NW 0.0 mm  4.0 °C 4.9 °C
Schio Monte Magré (VI) 20/02/19 03.09 2.6 °C 96 % 2.0 °C 0.0 hPa 0.0 Km/h WSW 0.0 mm  2.5 °C 3.3 °C
Soave Borgo Bassano (VR) 20/02/19 03.05 2.6 °C 94 % 1.7 °C 1023.8 hPa 0.0 Km/h N 0.0 mm  1.9 °C 4.2 °C
Sona Loc. La Colombara (VR) 20/02/19 03.00 1.0 °C 95 % 0.3 °C 1019.8 hPa 0.0 Km/h E 0.0 mm  0.0 °C 3.0 °C
Sorgà ARPAV (VR) 20/02/19 03.00 0.5 °C 100 % 0.5 °C  hPa 3.2 Km/h NNW 0.0 mm  0.5 °C 3.0 °C
Tombolo (PD) 20/02/19 03.09 6.3 °C 89 % 4.7 °C 1024.1 hPa 0.0 Km/h NNW 0.0 mm  6.3 °C 6.7 °C
Tregnago Loc. Centro (VR) 13/02/19 18.10 6.4 °C 62 % -0.4 °C 1029.3 hPa 3.2 Km/h NW 0.0 mm  3.6 °C 8.6 °C
Treviso (TV) 20/02/19 03.06 6.2 °C 86 % 4.0 °C 1023.0 hPa 1.0 Km/h NE 0.0 mm  6.2 °C 6.5 °C
Val Lastaro (VI) 20/02/19 02.59 0.0 °C 0 % -18.2 °C 1024.4 hPa 0.0 Km/h N 0.0 mm  -3.4 °C 0.5 °C
Valdagno (VI) 20/02/19 03.06 1.1 °C 94 % 0.2 °C 1019.2 hPa 1.1 Km/h SW 0.0 mm  1.1 °C 2.1 °C
Valdobbiadene San Pietro di Barbozza (TV) 20/02/19 03.00 4.6 °C 91 % 3.3 °C 1022.3 hPa 9.7 Km/h N 0.0 mm  3.8 °C 4.7 °C
Valli del Pasubio loc. Gisbenti (VI) 20/02/19 03.06 -0.9 °C 86 % -2.9 °C 978.0 hPa 0.0 Km/h --- 0.0 mm  -0.9 °C -0.1 °C
Vazzo Roveré Veronese (VR) 20/02/19 03.09 1.7 °C 84 % -0.7 °C 1019.2 hPa 1.6 Km/h NE 0.0 mm  1.3 °C 2.3 °C
Verona Bgo Venezia (iz3sly) (VR) 20/02/19 03.01 1.1 °C 91 % -0.2 °C 1022.2 hPa 0.0 Km/h NNW 0.0 mm  1.1 °C 2.8 °C
Verona Cadidavid2 (VR) 20/02/19 02.55 0.6 °C 82 % -2.1 °C 1023.6 hPa 0.0 Km/h SE 0.0 mm  0.6 °C 2.8 °C
Vicenza Campedello (VI) 20/02/19 03.19 5.9 °C 92 % 5.0 °C 1024.0 hPa 0.0 Km/h NNW 0.0 mm  5.9 °C 6.4 °C
Vicenza Pecori Giraldi (VI) 20/02/19 02.55 6.4 °C 100 % 6.4 °C 1033.7 hPa 0.2 Km/h N 0.0 mm  6.4 °C 6.8 °C
Vicenza S. Lazzaro (VI) 20/02/19 03.05 6.0 °C 88 % 4.2 °C 1022.7 hPa 0.0 Km/h SE 0.0 mm  6.0 °C 6.0 °C
Vicenza San Gaetano (VI) 19/02/19 22.54 7.1 °C 88 % 5.2 °C 1023.2 hPa 0.0 Km/h NNW 0.0 mm  1.6 °C 11.7 °C
Vidor (TV) 20/02/19 03.01 5.5 °C 85 % 3.2 °C 1021.8 hPa 1.3 Km/h WSW 0.0 mm  5.5 °C 6.1 °C
Vigardolo (VI) 20/02/19 02.55 6.2 °C 84 % 3.7 °C 1021.5 hPa 1.3 Km/h NNE 0.0 mm  6.2 °C 6.8 °C
Vigasio (VR) 20/02/19 02.50 2.4 °C 96 % 1.8 °C 1021.8 hPa 1.6 Km/h WNW 0.0 mm  1.9 °C 3.6 °C
Villabartolomea (VR) 20/02/19 03.05 0.0 °C 0 % 0.0 °C 1022.8 hPa 0.0 Km/h SE 0.0 mm  0.9 °C 4.8 °C
Villafranca di Verona ARPAV (VR) 20/02/19 03.00 0.9 °C 99 % 0.8 °C  hPa 0.0 Km/h N 0.0 mm  0.4 °C 2.2 °C
Vittorio Veneto (TV) 20/02/19 00.30 6.9 °C 84 % 4.4 °C 1023.2 hPa 0.0 Km/h N 0.0 mm  6.9 °C 7.0 °C
Vittorio Veneto Parco Fenderl (TV) 20/02/19 00.20 6.2 °C 87 % 4.2 °C 1023.6 hPa 3.2 Km/h NW 0.0 mm  6.2 °C 6.3 °C
Volpago del Montello (TV) 20/02/19 03.00 5.9 °C 91 % 4.5 °C 1023.2 hPa 0.0 Km/h --- 0.0 mm  5.9 °C 6.1 °C
 
 
 
(*) = Precipitazioni nelle ultime 24h.
Dati non aggiornati nell'ultima ora.
   
In collaborazione con:
 
Top! Top!